createdAt,value
2023-11-23T00:01:18.829Z,4.06
2023-11-23T00:04:22.453Z,4.01
2023-11-23T00:07:25.190Z,4.02
2023-11-23T00:10:29.728Z,3.97
2023-11-23T00:13:32.334Z,3.97
2023-11-23T00:16:35.490Z,4.06
2023-11-23T00:19:38.080Z,3.96
2023-11-23T00:22:41.193Z,3.93
2023-11-23T00:25:45.685Z,3.90
2023-11-23T00:28:48.951Z,3.81
2023-11-23T00:31:51.548Z,3.78
2023-11-23T00:34:54.763Z,3.75
2023-11-23T00:37:57.418Z,3.89
2023-11-23T00:41:02.571Z,3.86
2023-11-23T00:44:05.867Z,3.77
2023-11-23T00:47:12.937Z,3.68
2023-11-23T00:50:15.724Z,3.61
2023-11-23T00:53:18.958Z,3.62
2023-11-23T00:56:21.838Z,3.66
2023-11-23T00:59:25.082Z,3.61
2023-11-23T01:02:28.557Z,3.68
2023-11-23T01:05:32.752Z,3.61
2023-11-23T01:08:35.356Z,3.67
2023-11-23T01:11:39.220Z,3.70
2023-11-23T01:14:41.970Z,3.61
2023-11-23T01:17:45.259Z,3.53
2023-11-23T01:20:47.916Z,3.53
2023-11-23T01:23:51.001Z,3.57
2023-11-23T01:26:53.678Z,3.67
2023-11-23T01:29:57.440Z,3.58
2023-11-23T01:33:00.124Z,3.70
2023-11-23T01:36:03.724Z,3.62
2023-11-23T01:39:06.380Z,3.63
2023-11-23T01:42:09.571Z,3.62
2023-11-23T01:45:13.231Z,3.68
2023-11-23T01:48:17.236Z,3.57
2023-11-23T01:51:19.972Z,3.45
2023-11-23T01:54:24.385Z,3.45
2023-11-23T01:57:33.385Z,3.37
2023-11-23T02:00:38.345Z,3.36
2023-11-23T02:03:41.400Z,3.36
2023-11-23T02:06:44.407Z,3.26
2023-11-23T02:09:47.271Z,3.21
2023-11-23T02:12:51.614Z,3.32
2023-11-23T02:15:54.604Z,3.30
2023-11-23T02:18:57.479Z,3.28
2023-11-23T02:22:00.371Z,3.46
2023-11-23T02:25:05.284Z,3.37
2023-11-23T02:28:09.468Z,3.37
2023-11-23T02:31:12.413Z,3.44
2023-11-23T02:34:16.096Z,3.48
2023-11-23T02:37:19.337Z,3.36
2023-11-23T02:40:22.440Z,3.42
2023-11-23T02:43:26.852Z,3.37
2023-11-23T02:46:29.989Z,3.40
2023-11-23T02:49:33.359Z,3.34
2023-11-23T02:52:36.338Z,3.33
2023-11-23T02:55:39.244Z,3.43
2023-11-23T02:58:43.049Z,3.37
2023-11-23T03:01:45.993Z,3.40
2023-11-23T03:04:49.223Z,3.51
2023-11-23T03:07:53.356Z,3.43
2023-11-23T03:10:56.278Z,3.55
2023-11-23T03:13:59.532Z,3.47
2023-11-23T03:17:04.913Z,3.56
2023-11-23T03:20:10.192Z,3.65
2023-11-23T03:23:13.432Z,3.69
2023-11-23T03:26:17.639Z,3.70
2023-11-23T03:29:20.894Z,3.73
2023-11-23T03:32:26.545Z,3.77
2023-11-23T03:35:29.445Z,3.71
2023-11-23T03:38:32.694Z,3.63
2023-11-23T03:41:35.650Z,3.58
2023-11-23T03:44:38.575Z,3.57
2023-11-23T03:47:41.451Z,3.66
2023-11-23T03:50:44.613Z,3.63
2023-11-23T03:53:47.559Z,3.88
2023-11-23T03:56:50.639Z,3.68
2023-11-23T03:59:53.460Z,3.81
2023-11-23T04:02:57.381Z,3.85
2023-11-23T04:06:00.541Z,3.87
2023-11-23T04:09:04.562Z,3.76
2023-11-23T04:12:08.040Z,3.86
2023-11-23T04:15:11.299Z,3.75
2023-11-23T04:18:14.209Z,3.71
2023-11-23T04:21:17.478Z,3.68
2023-11-23T04:24:20.468Z,3.63
2023-11-23T04:27:23.368Z,3.65
2023-11-23T04:30:26.489Z,3.57
2023-11-23T04:33:29.395Z,3.60
2023-11-23T04:36:32.247Z,3.61
2023-11-23T04:39:35.576Z,3.69
2023-11-23T04:42:38.582Z,3.61
2023-11-23T04:45:42.323Z,3.61
2023-11-23T04:48:45.247Z,3.73
2023-11-23T04:51:48.119Z,3.62
2023-11-23T04:54:51.056Z,3.57
2023-11-23T04:57:53.890Z,3.76
2023-11-23T05:00:56.833Z,3.68
2023-11-23T05:04:03.003Z,3.69
2023-11-23T05:07:07.971Z,3.73
2023-11-23T05:10:11.064Z,3.70
2023-11-23T05:13:14.638Z,3.71
2023-11-23T05:16:17.725Z,3.81
2023-11-23T05:19:31.827Z,3.82
2023-11-23T05:22:47.063Z,3.89
2023-11-23T05:25:50.662Z,3.83
2023-11-23T05:28:53.408Z,3.86
2023-11-23T05:31:56.165Z,3.97
2023-11-23T05:34:58.999Z,3.90
2023-11-23T05:38:02.646Z,3.93
2023-11-23T05:41:05.675Z,3.85
2023-11-23T05:44:08.658Z,3.93
2023-11-23T05:47:11.966Z,3.98
2023-11-23T05:50:14.871Z,3.85
2023-11-23T05:53:17.718Z,3.93
2023-11-23T05:56:20.810Z,3.81
2023-11-23T05:59:23.957Z,3.80
2023-11-23T06:02:27.562Z,3.88
2023-11-23T06:05:32.098Z,3.84
2023-11-23T06:08:36.105Z,3.81
2023-11-23T06:11:39.399Z,3.87
2023-11-23T06:14:42.303Z,3.94
2023-11-23T06:17:45.602Z,3.96
2023-11-23T06:20:48.519Z,4.02
2023-11-23T06:23:52.828Z,4.05
2023-11-23T06:26:55.541Z,4.04
2023-11-23T06:29:59.024Z,4.17
2023-11-23T06:33:01.778Z,4.22
2023-11-23T06:36:05.237Z,4.22
2023-11-23T06:39:10.566Z,4.43
2023-11-23T06:42:13.995Z,4.32
2023-11-23T06:45:17.834Z,4.38
2023-11-23T06:48:21.217Z,4.44
2023-11-23T06:51:24.073Z,4.38
2023-11-23T06:54:27.288Z,4.23
2023-11-23T06:57:29.823Z,4.15
2023-11-23T07:00:33.562Z,4.16
2023-11-23T07:03:37.671Z,4.23
2023-11-23T07:06:41.504Z,4.31
2023-11-23T07:09:44.102Z,4.15
2023-11-23T07:12:48.313Z,4.19
2023-11-23T07:15:51.042Z,4.25
2023-11-23T07:18:54.315Z,4.31
2023-11-23T07:21:57.597Z,4.21
2023-11-23T07:25:01.462Z,4.22
2023-11-23T07:28:05.244Z,4.28
2023-11-23T07:31:10.534Z,4.41
2023-11-23T07:34:13.167Z,4.61
2023-11-23T07:37:16.900Z,4.61
2023-11-23T07:40:19.477Z,4.72
2023-11-23T07:43:22.693Z,4.75
2023-11-23T07:46:26.161Z,4.55
2023-11-23T07:49:29.326Z,4.56
2023-11-23T07:52:32.420Z,4.16
2023-11-23T07:55:36.035Z,4.29
2023-11-23T07:58:38.643Z,4.41
2023-11-23T08:01:41.801Z,4.44
2023-11-23T08:04:45.542Z,4.47
2023-11-23T08:07:51.329Z,4.37
2023-11-23T08:10:54.259Z,4.29
2023-11-23T08:13:57.186Z,4.52
2023-11-23T08:17:00.261Z,4.91
2023-11-23T08:20:08.201Z,5.14
2023-11-23T08:23:13.856Z,5.74
2023-11-23T08:26:17.605Z,7.25
2023-11-23T08:29:20.568Z,8.78
2023-11-23T08:32:23.865Z,9.93
2023-11-23T08:35:27.078Z,10.56
2023-11-23T08:38:30.273Z,11.47
2023-11-23T08:41:33.421Z,12.65
2023-11-23T08:44:37.191Z,13.80
2023-11-23T08:47:40.250Z,14.64
2023-11-23T08:50:43.339Z,14.46
2023-11-23T08:53:46.196Z,15.53
2023-11-23T08:56:48.964Z,15.80
2023-11-23T08:59:52.231Z,14.90
2023-11-23T09:02:55.660Z,13.56
2023-11-23T09:05:59.674Z,14.13
2023-11-23T09:09:03.086Z,14.57
2023-11-23T09:12:06.603Z,14.59
2023-11-23T09:15:11.416Z,14.74
2023-11-23T09:18:15.303Z,14.86
2023-11-23T09:21:18.449Z,15.03
2023-11-23T09:24:23.174Z,15.09
2023-11-23T09:27:26.290Z,15.23
2023-11-23T09:30:29.362Z,15.09
2023-11-23T09:33:32.797Z,14.68
2023-11-23T09:36:35.881Z,13.90
2023-11-23T09:39:39.841Z,12.82
2023-11-23T09:42:42.978Z,12.56
2023-11-23T09:45:46.696Z,12.16
2023-11-23T09:48:50.408Z,11.50
2023-11-23T09:51:53.611Z,10.61
2023-11-23T09:54:58.021Z,9.85
2023-11-23T09:58:04.645Z,9.50
2023-11-23T10:01:10.542Z,9.27
2023-11-23T10:04:13.890Z,9.09
2023-11-23T10:07:21.512Z,8.89
2023-11-23T10:10:28.130Z,8.72
2023-11-23T10:13:30.827Z,8.58
2023-11-23T10:16:34.339Z,8.54
2023-11-23T10:19:37.517Z,8.30
2023-11-23T10:22:48.785Z,8.30
2023-11-23T10:25:52.466Z,8.25
2023-11-23T10:28:56.608Z,8.31
2023-11-23T10:32:02.851Z,7.98
2023-11-23T10:35:08.210Z,7.92
2023-11-23T10:38:13.184Z,8.47
2023-11-23T10:41:17.563Z,8.56
2023-11-23T10:44:21.241Z,8.35
2023-11-23T10:47:27.771Z,7.94
2023-11-23T10:50:31.144Z,8.68
2023-11-23T10:53:34.597Z,9.28
2023-11-23T10:56:38.023Z,9.91
2023-11-23T10:59:45.496Z,9.69
2023-11-23T11:02:49.181Z,10.01
2023-11-23T11:05:54.606Z,10.37
2023-11-23T11:08:57.247Z,10.82
2023-11-23T11:12:03.505Z,10.02
2023-11-23T11:15:07.855Z,9.84
2023-11-23T11:18:11.824Z,9.79
2023-11-23T11:21:18.369Z,10.31
2023-11-23T11:24:23.246Z,10.89
2023-11-23T11:27:30.428Z,10.66
2023-11-23T11:30:38.849Z,11.06
2023-11-23T11:33:41.821Z,11.50
2023-11-23T11:36:45.818Z,11.93
2023-11-23T11:39:48.899Z,12.04
2023-11-23T11:42:52.091Z,12.40
2023-11-23T11:45:54.930Z,12.60
2023-11-23T11:49:01.841Z,12.34
2023-11-23T11:52:07.374Z,12.64
2023-11-23T11:55:10.714Z,12.91
2023-11-23T11:58:13.340Z,13.28
2023-11-23T12:01:19.460Z,13.21
2023-11-23T12:04:22.887Z,13.47
2023-11-23T12:07:26.552Z,13.58
2023-11-23T12:10:39.803Z,13.84
2023-11-23T12:13:42.672Z,13.93
2023-11-23T12:16:47.160Z,14.14
2023-11-23T12:19:54.088Z,13.61
2023-11-23T12:23:00.827Z,13.42
2023-11-23T12:26:03.852Z,13.74
2023-11-23T12:29:06.771Z,13.70
2023-11-23T12:32:09.785Z,13.93
2023-11-23T12:35:12.693Z,13.78
2023-11-23T12:38:15.774Z,13.16
2023-11-23T12:41:20.619Z,13.72
2023-11-23T12:44:23.481Z,13.30
2023-11-23T12:47:27.974Z,13.61
2023-11-23T12:50:32.519Z,13.74
2023-11-23T12:53:35.565Z,14.18
2023-11-23T12:56:39.218Z,14.04
2023-11-23T12:59:42.079Z,13.87
2023-11-23T13:02:45.120Z,12.97
2023-11-23T13:05:50.924Z,12.11
2023-11-23T13:08:53.943Z,11.51
2023-11-23T13:11:58.145Z,11.27
2023-11-23T13:15:01.185Z,10.78
2023-11-23T13:18:05.780Z,10.52
2023-11-23T13:21:09.188Z,10.18
2023-11-23T13:24:13.445Z,9.87
2023-11-23T13:27:17.429Z,9.99
2023-11-23T13:30:20.636Z,10.00
2023-11-23T13:33:24.655Z,9.96
2023-11-23T13:36:30.520Z,9.82
2023-11-23T13:39:36.937Z,9.65
2023-11-23T13:42:42.519Z,9.64
2023-11-23T13:45:50.702Z,9.44
2023-11-23T13:48:53.887Z,9.19
2023-11-23T13:51:58.360Z,8.89
2023-11-23T13:55:01.326Z,8.82
2023-11-23T13:58:06.633Z,8.77
2023-11-23T14:01:12.766Z,8.34
2023-11-23T14:04:16.216Z,8.20
2023-11-23T14:07:19.452Z,8.09
2023-11-23T14:10:22.855Z,7.92
2023-11-23T14:13:26.774Z,7.71
2023-11-23T14:16:36.066Z,7.70
2023-11-23T14:19:39.521Z,7.61
2023-11-23T14:22:45.499Z,7.49
2023-11-23T14:25:48.326Z,7.48
2023-11-23T14:28:51.845Z,7.46
2023-11-23T14:31:55.114Z,7.40
2023-11-23T14:34:58.708Z,7.49
2023-11-23T14:38:03.485Z,7.46
2023-11-23T14:41:09.447Z,7.42
2023-11-23T14:44:12.328Z,7.52
2023-11-23T14:47:15.459Z,7.46
2023-11-23T14:50:18.506Z,7.38
2023-11-23T14:53:28.196Z,7.32
2023-11-23T14:56:30.857Z,7.30
2023-11-23T14:59:36.958Z,7.27
2023-11-23T15:02:42.418Z,7.23
2023-11-23T15:05:47.010Z,7.14
2023-11-23T15:08:54.267Z,7.10
2023-11-23T15:12:01.076Z,6.98
2023-11-23T15:15:03.943Z,6.96
2023-11-23T15:18:08.878Z,6.94
2023-11-23T15:21:13.234Z,6.84
2023-11-23T15:24:19.276Z,6.79
2023-11-23T15:27:23.208Z,6.83
2023-11-23T15:30:26.500Z,6.81
2023-11-23T15:33:31.019Z,6.85
2023-11-23T15:36:40.250Z,6.81
2023-11-23T15:39:46.112Z,6.72
2023-11-23T15:42:49.333Z,6.78
2023-11-23T15:45:53.217Z,6.80
2023-11-23T15:48:56.442Z,6.76
2023-11-23T15:51:59.465Z,6.62
2023-11-23T15:55:05.871Z,6.63
2023-11-23T15:58:09.983Z,6.61
2023-11-23T16:01:13.594Z,6.59
2023-11-23T16:04:16.901Z,6.57
2023-11-23T16:07:19.939Z,6.46
2023-11-23T16:10:22.881Z,6.39
2023-11-23T16:13:26.025Z,6.30
2023-11-23T16:16:28.948Z,6.35
2023-11-23T16:19:31.825Z,6.28
2023-11-23T16:22:34.687Z,6.31
2023-11-23T16:25:37.559Z,6.13
2023-11-23T16:28:40.507Z,6.11
2023-11-23T16:31:46.222Z,6.10
2023-11-23T16:34:49.679Z,6.12
2023-11-23T16:37:52.768Z,6.12
2023-11-23T16:40:57.865Z,6.15
2023-11-23T16:44:00.861Z,6.17
2023-11-23T16:47:04.441Z,6.10
2023-11-23T16:50:10.800Z,6.09
2023-11-23T16:53:14.453Z,6.03
2023-11-23T16:56:17.610Z,6.03
2023-11-23T16:59:21.362Z,6.05
2023-11-23T17:02:24.770Z,5.98
2023-11-23T17:05:28.259Z,5.98
2023-11-23T17:08:30.985Z,5.85
2023-11-23T17:11:34.114Z,5.91
2023-11-23T17:14:37.342Z,5.83
2023-11-23T17:17:46.178Z,5.72
2023-11-23T17:20:49.191Z,5.71
2023-11-23T17:23:52.667Z,5.75
2023-11-23T17:26:55.636Z,5.65
2023-11-23T17:29:58.685Z,5.56
2023-11-23T17:36:06.525Z,5.44
2023-11-23T17:39:16.873Z,5.51
2023-11-23T17:42:20.919Z,5.53
2023-11-23T17:45:24.505Z,5.56
2023-11-23T17:48:28.824Z,5.55
2023-11-23T17:51:31.804Z,5.46
2023-11-23T17:54:34.676Z,5.37
2023-11-23T17:57:37.875Z,5.37
2023-11-23T18:00:40.994Z,5.22
2023-11-23T18:03:44.475Z,5.15
2023-11-23T18:06:46.973Z,5.17
2023-11-23T18:09:53.115Z,5.05
2023-11-23T18:12:57.864Z,5.07
2023-11-23T18:16:00.966Z,5.09
2023-11-23T18:19:03.915Z,5.10
2023-11-23T18:22:08.832Z,5.10
2023-11-23T18:25:11.564Z,5.07
2023-11-23T18:28:14.730Z,5.00
2023-11-23T18:31:19.805Z,4.98
2023-11-23T18:34:23.100Z,5.01
2023-11-23T18:37:25.930Z,4.96
2023-11-23T18:40:29.136Z,4.95
2023-11-23T18:43:31.924Z,4.92
2023-11-23T18:46:35.056Z,4.83
2023-11-23T18:49:39.605Z,4.83
2023-11-23T18:52:43.215Z,4.88
2023-11-23T18:55:48.316Z,4.85
2023-11-23T18:58:51.561Z,4.76
2023-11-23T19:01:55.768Z,4.73
2023-11-23T19:05:00.539Z,4.76
2023-11-23T19:08:03.549Z,4.74
2023-11-23T19:11:07.403Z,4.75
2023-11-23T19:14:10.179Z,4.68
2023-11-23T19:17:14.737Z,4.67
2023-11-23T19:20:18.759Z,4.72
2023-11-23T19:23:23.340Z,4.66
2023-11-23T19:26:27.077Z,4.58
2023-11-23T19:29:38.936Z,4.61
2023-11-23T19:32:52.712Z,4.41
2023-11-23T19:35:56.517Z,4.39
2023-11-23T19:38:59.806Z,4.35
2023-11-23T19:42:05.111Z,4.29
2023-11-23T19:45:08.365Z,4.26
2023-11-23T19:48:12.302Z,4.16
2023-11-23T19:51:22.955Z,4.07
2023-11-23T19:54:27.146Z,4.10
2023-11-23T19:57:29.775Z,4.05
2023-11-23T20:00:33.305Z,4.05
2023-11-23T20:03:36.554Z,3.96
2023-11-23T20:06:39.508Z,3.97
2023-11-23T20:09:44.283Z,3.99
2023-11-23T20:12:47.381Z,4.04
2023-11-23T20:15:50.626Z,4.06
2023-11-23T20:18:53.632Z,4.09
2023-11-23T20:21:56.970Z,4.09
2023-11-23T20:25:00.017Z,4.06
2023-11-23T20:28:03.108Z,3.95
2023-11-23T20:31:06.400Z,3.96
2023-11-23T20:34:09.409Z,3.97
2023-11-23T20:37:12.366Z,3.95
2023-11-23T20:40:15.475Z,3.98
2023-11-23T20:43:20.452Z,4.02
2023-11-23T20:46:24.614Z,4.08
2023-11-23T20:49:27.651Z,4.19
2023-11-23T20:52:30.522Z,4.10
2023-11-23T20:55:33.774Z,4.31
2023-11-23T20:58:37.349Z,4.40
2023-11-23T21:01:40.936Z,4.26
2023-11-23T21:04:45.263Z,4.25
2023-11-23T21:07:48.498Z,4.32
2023-11-23T21:10:51.510Z,4.36
2023-11-23T21:13:54.413Z,4.41
2023-11-23T21:16:57.362Z,4.48
2023-11-23T21:20:00.312Z,4.57
2023-11-23T21:23:04.035Z,4.60
2023-11-23T21:26:07.373Z,4.67
2023-11-23T21:29:13.321Z,4.75
2023-11-23T21:32:16.856Z,4.85
2023-11-23T21:35:22.432Z,4.85
2023-11-23T21:38:25.375Z,4.85
2023-11-23T21:41:28.290Z,4.85
2023-11-23T21:44:31.493Z,4.91
2023-11-23T21:47:35.483Z,4.93
2023-11-23T21:50:39.668Z,4.97
2023-11-23T21:53:42.727Z,5.03
2023-11-23T21:56:46.334Z,5.00
2023-11-23T21:59:49.054Z,4.98
2023-11-23T22:02:51.911Z,5.03
2023-11-23T22:05:54.843Z,5.01
2023-11-23T22:08:57.857Z,5.00
2023-11-23T22:12:00.711Z,4.98
2023-11-23T22:15:03.919Z,5.01
2023-11-23T22:18:07.157Z,5.22
2023-11-23T22:21:10.821Z,5.16
2023-11-23T22:24:17.647Z,5.24
2023-11-23T22:27:21.614Z,5.26
2023-11-23T22:30:24.862Z,5.45
2023-11-23T22:33:29.044Z,5.69
2023-11-23T22:36:32.284Z,5.64
2023-11-23T22:39:35.427Z,5.66
2023-11-23T22:42:39.615Z,5.64
2023-11-23T22:45:43.173Z,5.70
2023-11-23T22:48:46.146Z,5.62
2023-11-23T22:51:49.627Z,5.56
2023-11-23T22:54:53.108Z,5.47
2023-11-23T22:57:56.141Z,5.50
2023-11-23T23:00:59.308Z,5.60
2023-11-23T23:04:02.311Z,5.59
2023-11-23T23:07:07.225Z,5.56
2023-11-23T23:10:10.163Z,5.65
2023-11-23T23:13:14.274Z,5.61
2023-11-23T23:16:17.280Z,5.60
2023-11-23T23:19:20.191Z,5.48
2023-11-23T23:22:28.785Z,5.37
2023-11-23T23:25:32.702Z,5.34
2023-11-23T23:28:35.812Z,5.20
2023-11-23T23:31:40.033Z,5.09
2023-11-23T23:34:43.002Z,4.85
2023-11-23T23:37:47.137Z,4.79
2023-11-23T23:40:51.778Z,4.75
2023-11-23T23:43:54.871Z,4.66
2023-11-23T23:46:57.815Z,4.69
2023-11-23T23:50:00.710Z,4.60
2023-11-23T23:53:03.618Z,4.57
2023-11-23T23:56:08.055Z,4.46
2023-11-23T23:59:11.562Z,4.40
